Аэропорт: Петропавловск. Петропавловск

ICAO: UACP

METAR:
2019/05/25 12:30
UACP 251230Z 31008MPS 9999 BKN033CB 09/M05 Q1010 R23/0/0060 NOSIG RMK QFE745/0994
METAR:
2014/11/02 09:00
TAF UACP 020753Z 0209/0218 21004MPS 9999 BKN030